Time;durP1;ratioP1;P1;durP2;ratioP2;P2;SDS_P1;SDS_P2;PMS_P1;PMS_P2;Temp;Humidity;BMP_temperature;BMP_pressure;BME280_temperature;BME280_humidity;BME280_pressure;Samples;Min_cycle;Max_cycle;Signal;HPM_P1;HPM_P2
2023/06/29 00:01:27;;;;;;;4.78;2.60;;;;;;;;;;4991525;28;20055;-83
2023/06/29 00:03:54;;;;;;;5.50;2.53;;;;;;;;;;5013407;28;20145;-85
2023/06/29 00:06:20;;;;;;;5.35;2.38;;;;;;;;;;5010736;28;20141;-85
2023/06/29 00:08:48;;;;;;;5.75;2.58;;;;;;;;;;5018260;28;20049;-85
2023/06/29 00:11:15;;;;;;;4.82;2.67;;;;;;;;;;5010949;28;20109;-85
2023/06/29 00:13:42;;;;;;;5.32;2.45;;;;;;;;;;5011934;28;20050;-83
2023/06/29 00:16:08;;;;;;;7.50;3.05;;;;;;;;;;5010514;28;20325;-83
2023/06/29 00:18:35;;;;;;;8.00;2.85;;;;;;;;;;5008896;28;20054;-85
2023/06/29 00:21:04;;;;;;;6.35;3.50;;;;;;;;;;5021057;28;20052;-84
2023/06/29 00:23:34;;;;;;;8.38;3.28;;;;;;;;;;4996669;28;20041;-83
2023/06/29 00:26:02;;;;;;;7.80;3.53;;;;;;;;;;4993920;28;20056;-83
2023/06/29 00:28:29;;;;;;;12.13;3.50;;;;;;;;;;5013811;28;20108;-84
2023/06/29 00:30:56;;;;;;;7.85;3.33;;;;;;;;;;4996486;28;20045;-85
2023/06/29 00:33:26;;;;;;;9.13;2.88;;;;;;;;;;5014938;28;20050;-84
2023/06/29 00:35:52;;;;;;;4.72;2.72;;;;;;;;;;4998211;28;20053;-82
2023/06/29 00:38:21;;;;;;;7.10;2.90;;;;;;;;;;5001020;28;20101;-82
2023/06/29 00:40:48;;;;;;;6.50;2.72;;;;;;;;;;5000510;28;20511;-85
2023/06/29 00:43:17;;;;;;;5.05;2.30;;;;;;;;;;4998486;28;20042;-84
2023/06/29 00:45:44;;;;;;;7.57;2.72;;;;;;;;;;5015240;28;20046;-84
2023/06/29 00:48:14;;;;;;;7.75;3.05;;;;;;;;;;4999374;28;20060;-85
2023/06/29 00:50:41;;;;;;;8.13;2.72;;;;;;;;;;5009548;28;20053;-84
2023/06/29 00:53:08;;;;;;;5.18;2.90;;;;;;;;;;5025757;28;20058;-84
2023/06/29 00:55:35;;;;;;;5.25;2.90;;;;;;;;;;4997707;28;20045;-84
2023/06/29 00:58:02;;;;;;;6.10;2.45;;;;;;;;;;5014445;28;20072;-84
2023/06/29 01:00:29;;;;;;;7.35;3.03;;;;;;;;;;5014125;28;20057;-84
2023/06/29 01:02:56;;;;;;;7.38;3.30;;;;;;;;;;5008216;28;20046;-84
2023/06/29 01:05:24;;;;;;;6.43;2.97;;;;;;;;;;5009039;28;20077;-82
2023/06/29 01:08:01;;;;;;;7.90;3.22;;;;;;;;;;5014633;28;20037;-83
2023/06/29 01:10:30;;;;;;;5.25;3.05;;;;;;;;;;4992626;28;20045;-84
2023/06/29 01:12:59;;;;;;;8.38;3.20;;;;;;;;;;5011216;28;20476;-84
2023/06/29 01:15:26;;;;;;;3.67;2.42;;;;;;;;;;5008063;28;20053;-86
2023/06/29 01:17:53;;;;;;;6.47;3.00;;;;;;;;;;5012315;28;20061;-83
2023/06/29 01:20:20;;;;;;;6.88;3.10;;;;;;;;;;4993123;28;20117;-84
2023/06/29 01:22:54;;;;;;;5.93;2.83;;;;;;;;;;5015565;28;20465;-83
2023/06/29 01:25:21;;;;;;;7.55;2.60;;;;;;;;;;5015374;28;20441;-84
2023/06/29 01:27:48;;;;;;;5.45;2.90;;;;;;;;;;5013240;28;20065;-85
2023/06/29 01:30:15;;;;;;;3.78;2.20;;;;;;;;;;4995603;28;20443;-84
2023/06/29 01:32:41;;;;;;;6.63;2.28;;;;;;;;;;5012804;28;20049;-83
2023/06/29 01:35:08;;;;;;;5.80;2.30;;;;;;;;;;5012287;28;20042;-83
2023/06/29 01:37:39;;;;;;;6.82;2.15;;;;;;;;;;4994173;28;20042;-82
2023/06/29 01:40:08;;;;;;;4.53;2.08;;;;;;;;;;4993448;28;20042;-82
2023/06/29 01:42:37;;;;;;;3.50;2.13;;;;;;;;;;5009570;28;20042;-82
2023/06/29 01:45:07;;;;;;;5.30;2.30;;;;;;;;;;5014182;28;20046;-83
2023/06/29 01:47:34;;;;;;;4.85;2.58;;;;;;;;;;5035674;28;20052;-84
2023/06/29 01:50:02;;;;;;;4.50;2.33;;;;;;;;;;5005496;28;20116;-86
2023/06/29 01:52:29;;;;;;;6.75;2.65;;;;;;;;;;5016977;28;20042;-85
2023/06/29 01:54:56;;;;;;;5.68;2.72;;;;;;;;;;5001060;28;20045;-85
2023/06/29 01:57:26;;;;;;;4.72;2.58;;;;;;;;;;5011765;28;20069;-84
2023/06/29 01:59:52;;;;;;;7.88;3.05;;;;;;;;;;5011497;28;20112;-84
2023/06/29 02:02:19;;;;;;;10.40;3.42;;;;;;;;;;5011033;28;20049;-84
2023/06/29 02:04:45;;;;;;;9.38;3.22;;;;;;;;;;4995852;28;20046;-86
2023/06/29 02:07:12;;;;;;;7.15;3.17;;;;;;;;;;5010900;28;20080;-84
2023/06/29 02:09:39;;;;;;;8.85;3.50;;;;;;;;;;5010852;28;20165;-85
2023/06/29 02:12:06;;;;;;;7.47;3.22;;;;;;;;;;4995401;28;20080;-84
2023/06/29 02:14:32;;;;;;;8.95;2.80;;;;;;;;;;4995320;28;20057;-84
2023/06/29 02:16:59;;;;;;;6.43;2.90;;;;;;;;;;4996421;28;20053;-83
2023/06/29 02:19:25;;;;;;;5.25;2.50;;;;;;;;;;4995884;28;20057;-84
2023/06/29 02:21:52;;;;;;;8.85;2.90;;;;;;;;;;4992369;28;20125;-83
2023/06/29 02:24:19;;;;;;;13.25;2.72;;;;;;;;;;5011962;28;20061;-85
2023/06/29 02:26:45;;;;;;;10.18;2.80;;;;;;;;;;5011697;28;20047;-84
2023/06/29 02:29:12;;;;;;;7.72;2.70;;;;;;;;;;5010224;28;20038;-83
2023/06/29 02:31:38;;;;;;;8.80;2.70;;;;;;;;;;5006655;28;20048;-84
2023/06/29 02:34:06;;;;;;;12.50;2.95;;;;;;;;;;5008533;28;20120;-82
2023/06/29 02:36:32;;;;;;;11.15;2.92;;;;;;;;;;5009054;28;20038;-82
2023/06/29 02:38:59;;;;;;;4.20;2.75;;;;;;;;;;5011086;28;20053;-84
2023/06/29 02:41:25;;;;;;;7.68;2.88;;;;;;;;;;5019303;28;20503;-84
2023/06/29 02:43:53;;;;;;;3.63;2.45;;;;;;;;;;5013426;28;20053;-82
2023/06/29 02:46:19;;;;;;;9.10;3.22;;;;;;;;;;5002838;28;20086;-83
2023/06/29 02:48:46;;;;;;;7.25;2.90;;;;;;;;;;5009904;28;20455;-82
2023/06/29 02:51:13;;;;;;;8.02;3.30;;;;;;;;;;5009442;28;20128;-83
2023/06/29 02:53:40;;;;;;;5.85;3.25;;;;;;;;;;4994561;28;20085;-82
2023/06/29 02:56:06;;;;;;;6.53;3.17;;;;;;;;;;5008457;28;20175;-83
2023/06/29 02:58:33;;;;;;;5.70;3.13;;;;;;;;;;5010774;28;20042;-83
2023/06/29 03:01:01;;;;;;;5.93;3.35;;;;;;;;;;4991286;28;20530;-82
2023/06/29 03:03:28;;;;;;;10.70;2.92;;;;;;;;;;5009583;28;20099;-83
2023/06/29 03:05:55;;;;;;;7.68;3.10;;;;;;;;;;5008513;28;20053;-84
2023/06/29 03:08:21;;;;;;;9.45;3.50;;;;;;;;;;5009203;28;20137;-83
2023/06/29 03:10:48;;;;;;;9.27;3.40;;;;;;;;;;4990048;28;20038;-84
2023/06/29 03:13:15;;;;;;;8.52;3.72;;;;;;;;;;4993436;28;20133;-83
2023/06/29 03:15:42;;;;;;;6.53;3.45;;;;;;;;;;5010166;28;20124;-83
2023/06/29 03:18:09;;;;;;;8.88;3.50;;;;;;;;;;4997182;28;20053;-83
2023/06/29 03:20:38;;;;;;;12.88;3.33;;;;;;;;;;4993011;28;20063;-83
2023/06/29 03:23:05;;;;;;;12.82;3.55;;;;;;;;;;5003369;28;21206;-83
2023/06/29 03:25:31;;;;;;;11.45;3.67;;;;;;;;;;4989163;28;20045;-84
2023/06/29 03:27:58;;;;;;;8.07;3.55;;;;;;;;;;5006496;28;20052;-82
2023/06/29 03:30:24;;;;;;;7.10;3.60;;;;;;;;;;5023110;28;20056;-83
2023/06/29 03:32:52;;;;;;;8.02;3.55;;;;;;;;;;5017069;28;20033;-81
2023/06/29 03:35:19;;;;;;;7.05;3.10;;;;;;;;;;5017574;28;20041;-81
2023/06/29 03:37:46;;;;;;;13.52;3.38;;;;;;;;;;5016349;28;20045;-84
2023/06/29 03:40:13;;;;;;;10.90;3.75;;;;;;;;;;4997942;28;20108;-84
2023/06/29 03:42:39;;;;;;;9.13;3.47;;;;;;;;;;4978827;28;20104;-84
2023/06/29 03:45:06;;;;;;;14.07;4.10;;;;;;;;;;5006783;28;20049;-84
2023/06/29 03:47:33;;;;;;;9.75;4.50;;;;;;;;;;5018288;28;20076;-86
2023/06/29 03:49:59;;;;;;;20.30;4.43;;;;;;;;;;5015570;28;20049;-84
2023/06/29 03:52:26;;;;;;;7.93;3.92;;;;;;;;;;5015586;28;20042;-84
2023/06/29 03:54:53;;;;;;;12.05;3.97;;;;;;;;;;5016276;28;20391;-84
2023/06/29 03:57:20;;;;;;;11.93;3.97;;;;;;;;;;5013439;28;20042;-83
2023/06/29 03:59:46;;;;;;;18.58;4.13;;;;;;;;;;5016375;28;20489;-83
2023/06/29 04:02:13;;;;;;;11.90;4.10;;;;;;;;;;5015867;28;20101;-85
2023/06/29 04:04:40;;;;;;;7.28;4.50;;;;;;;;;;5037462;28;20057;-83
2023/06/29 04:07:06;;;;;;;12.18;4.20;;;;;;;;;;5017444;28;20056;-85
2023/06/29 04:09:33;;;;;;;12.18;4.63;;;;;;;;;;5021074;28;20049;-85
2023/06/29 04:11:59;;;;;;;20.27;5.00;;;;;;;;;;5008815;28;20049;-84
2023/06/29 04:14:26;;;;;;;11.80;5.20;;;;;;;;;;5025888;28;20041;-84
2023/06/29 04:16:52;;;;;;;16.67;5.00;;;;;;;;;;5046382;28;20112;-84
2023/06/29 04:19:19;;;;;;;12.65;4.40;;;;;;;;;;5065534;28;20421;-84
2023/06/29 04:21:46;;;;;;;6.95;4.45;;;;;;;;;;5046887;28;20520;-84
2023/06/29 04:24:13;;;;;;;15.25;5.03;;;;;;;;;;5059520;28;20052;-83
2023/06/29 04:26:41;;;;;;;11.00;5.10;;;;;;;;;;5030391;28;20064;-83
2023/06/29 04:29:07;;;;;;;13.25;4.57;;;;;;;;;;5050247;28;20049;-83
2023/06/29 04:31:34;;;;;;;11.38;4.63;;;;;;;;;;4979697;28;20096;-83
2023/06/29 04:34:03;;;;;;;12.60;4.32;;;;;;;;;;4994803;28;20053;-83
2023/06/29 04:36:30;;;;;;;9.38;4.32;;;;;;;;;;4996149;28;20081;-85
2023/06/29 04:38:57;;;;;;;12.35;4.18;;;;;;;;;;5001799;28;20104;-84
2023/06/29 04:41:31;;;;;;;8.82;3.78;;;;;;;;;;5030741;28;20045;-84
2023/06/29 04:44:01;;;;;;;9.07;3.63;;;;;;;;;;5019803;28;20042;-82
2023/06/29 04:46:28;;;;;;;14.90;4.07;;;;;;;;;;4999280;28;20046;-84
2023/06/29 04:48:55;;;;;;;8.65;3.50;;;;;;;;;;4996878;28;20077;-84
2023/06/29 04:51:21;;;;;;;8.55;3.60;;;;;;;;;;5014642;28;20060;-83
2023/06/29 04:53:48;;;;;;;12.40;3.60;;;;;;;;;;4982541;28;20050;-82
2023/06/29 04:56:14;;;;;;;11.15;3.70;;;;;;;;;;4998892;28;20056;-83
2023/06/29 04:58:41;;;;;;;8.60;4.00;;;;;;;;;;5003387;28;20101;-83
2023/06/29 05:01:08;;;;;;;17.48;4.55;;;;;;;;;;5020769;28;20383;-83
2023/06/29 05:03:35;;;;;;;11.27;3.47;;;;;;;;;;5019338;28;20045;-84
2023/06/29 05:06:02;;;;;;;11.45;3.60;;;;;;;;;;5002697;28;20234;-84
2023/06/29 05:08:29;;;;;;;6.55;3.10;;;;;;;;;;5001317;28;20042;-83
2023/06/29 05:10:56;;;;;;;7.22;3.33;;;;;;;;;;5001375;28;20072;-83
2023/06/29 05:13:22;;;;;;;11.60;3.50;;;;;;;;;;5025165;28;20132;-85
2023/06/29 05:15:49;;;;;;;8.63;3.65;;;;;;;;;;4996596;28;20050;-81
2023/06/29 05:18:15;;;;;;;10.77;3.10;;;;;;;;;;5013663;28;20037;-80
2023/06/29 05:20:42;;;;;;;7.47;3.55;;;;;;;;;;4996747;28;20108;-81
2023/06/29 05:23:11;;;;;;;6.38;3.22;;;;;;;;;;5014017;28;20057;-81
2023/06/29 05:25:38;;;;;;;11.85;3.50;;;;;;;;;;5003608;28;20129;-81
2023/06/29 05:28:05;;;;;;;10.60;3.15;;;;;;;;;;4995758;28;20041;-82
2023/06/29 05:30:34;;;;;;;7.07;3.42;;;;;;;;;;4998557;28;20092;-80
2023/06/29 05:33:00;;;;;;;8.45;3.28;;;;;;;;;;5046788;28;20037;-82
2023/06/29 05:35:27;;;;;;;6.47;3.13;;;;;;;;;;5051278;28;20045;-82
2023/06/29 05:37:54;;;;;;;8.02;3.33;;;;;;;;;;5031915;28;20292;-82
2023/06/29 05:40:20;;;;;;;10.05;3.53;;;;;;;;;;5029686;28;20068;-82
2023/06/29 05:42:47;;;;;;;6.63;2.90;;;;;;;;;;5029038;28;20076;-82
2023/06/29 05:45:13;;;;;;;6.35;3.45;;;;;;;;;;5013713;28;20053;-83
2023/06/29 05:47:40;;;;;;;9.35;3.28;;;;;;;;;;5012759;28;20049;-81
2023/06/29 05:50:07;;;;;;;7.15;2.85;;;;;;;;;;5049538;28;20049;-82
2023/06/29 05:52:34;;;;;;;7.50;3.03;;;;;;;;;;5015803;28;20125;-83
2023/06/29 05:55:01;;;;;;;7.25;2.85;;;;;;;;;;5022923;28;20041;-82
2023/06/29 05:57:28;;;;;;;6.65;2.90;;;;;;;;;;5014345;28;20049;-81
2023/06/29 05:59:55;;;;;;;7.45;2.97;;;;;;;;;;5017955;28;20509;-83
2023/06/29 06:02:22;;;;;;;8.73;2.60;;;;;;;;;;5015796;28;20077;-83
2023/06/29 06:04:49;;;;;;;11.50;3.20;;;;;;;;;;5018431;28;20045;-83
2023/06/29 06:07:26;;;;;;;7.18;2.70;;;;;;;;;;4998294;28;20589;-81
2023/06/29 06:09:52;;;;;;;5.45;2.20;;;;;;;;;;5016001;28;20461;-82
2023/06/29 06:12:19;;;;;;;8.80;2.20;;;;;;;;;;5012914;28;20076;-80
2023/06/29 06:14:46;;;;;;;6.10;2.17;;;;;;;;;;5008442;28;20042;-80
2023/06/29 06:17:12;;;;;;;4.65;2.20;;;;;;;;;;5007405;28;20070;-80
2023/06/29 06:19:39;;;;;;;6.53;2.25;;;;;;;;;;5009286;28;20533;-80
2023/06/29 06:22:05;;;;;;;6.88;2.33;;;;;;;;;;5011443;28;20429;-82
2023/06/29 06:24:32;;;;;;;16.05;2.30;;;;;;;;;;5011765;28;20476;-81
2023/06/29 06:26:59;;;;;;;8.30;2.55;;;;;;;;;;5008081;28;20054;-81
2023/06/29 06:29:26;;;;;;;8.77;2.13;;;;;;;;;;5009723;28;20108;-81
2023/06/29 06:31:52;;;;;;;10.40;1.77;;;;;;;;;;5010134;28;20045;-81
2023/06/29 06:34:19;;;;;;;5.88;1.80;;;;;;;;;;5011622;28;20049;-81
2023/06/29 06:36:55;;;;;;;5.22;1.55;;;;;;;;;;5013585;28;20065;-82
2023/06/29 06:39:32;;;;;;;3.70;1.63;;;;;;;;;;5011987;28;20427;-80
2023/06/29 06:41:59;;;;;;;5.65;1.70;;;;;;;;;;5011861;28;20049;-81
2023/06/29 06:44:27;;;;;;;7.45;1.80;;;;;;;;;;4998046;28;20049;-81
2023/06/29 06:46:54;;;;;;;7.07;1.67;;;;;;;;;;5014173;28;20292;-81
2023/06/29 06:49:20;;;;;;;5.88;1.70;;;;;;;;;;5010648;28;20123;-82
2023/06/29 06:51:47;;;;;;;4.30;1.88;;;;;;;;;;4997476;28;20050;-82
2023/06/29 06:54:14;;;;;;;4.18;1.73;;;;;;;;;;5024488;28;20136;-82
2023/06/29 06:56:41;;;;;;;6.47;1.52;;;;;;;;;;5013207;28;20058;-82
2023/06/29 06:59:07;;;;;;;4.65;1.65;;;;;;;;;;5013228;28;20049;-81
2023/06/29 07:01:39;;;;;;;6.75;1.63;;;;;;;;;;5010679;28;20462;-82
2023/06/29 07:04:05;;;;;;;4.78;1.40;;;;;;;;;;5012988;28;20054;-81
2023/06/29 07:06:33;;;;;;;4.88;1.60;;;;;;;;;;5011932;28;20085;-81
2023/06/29 07:09:00;;;;;;;5.72;1.30;;;;;;;;;;5012148;28;20061;-82
2023/06/29 07:11:27;;;;;;;4.60;1.27;;;;;;;;;;5010487;28;20318;-81
2023/06/29 07:13:53;;;;;;;3.83;1.45;;;;;;;;;;5010622;28;20117;-81
2023/06/29 07:16:20;;;;;;;4.95;1.10;;;;;;;;;;5008224;28;20506;-81
2023/06/29 07:19:01;;;;;;;4.90;1.48;;;;;;;;;;5008474;28;20038;-80
2023/06/29 07:21:48;;;;;;;4.72;1.30;;;;;;;;;;5009908;28;20141;-82
2023/06/29 07:24:19;;;;;;;7.28;1.60;;;;;;;;;;5010449;28;20048;-81
2023/06/29 07:26:46;;;;;;;3.20;1.10;;;;;;;;;;4994821;28;20085;-81
2023/06/29 07:29:12;;;;;;;3.90;1.30;;;;;;;;;;5010488;28;20061;-82
2023/06/29 07:31:39;;;;;;;1.95;0.85;;;;;;;;;;5022946;28;20105;-84
2023/06/29 07:34:06;;;;;;;5.13;1.38;;;;;;;;;;5003798;28;20050;-82
2023/06/29 07:36:34;;;;;;;2.90;1.30;;;;;;;;;;5002287;28;20400;-82
2023/06/29 07:39:00;;;;;;;2.35;1.08;;;;;;;;;;5013785;28;20046;-81
2023/06/29 07:41:27;;;;;;;1.92;1.00;;;;;;;;;;5013987;28;20133;-82
2023/06/29 07:43:55;;;;;;;2.88;1.20;;;;;;;;;;5012487;28;20145;-82
2023/06/29 07:46:21;;;;;;;1.90;0.98;;;;;;;;;;5011290;28;20077;-83
2023/06/29 07:48:49;;;;;;;4.65;1.30;;;;;;;;;;5013231;28;20046;-83
2023/06/29 07:51:16;;;;;;;3.65;1.20;;;;;;;;;;5015038;28;20108;-81
2023/06/29 07:53:43;;;;;;;2.50;1.30;;;;;;;;;;5014177;28;20061;-83
2023/06/29 07:56:10;;;;;;;2.30;1.08;;;;;;;;;;5016041;28;20103;-82
2023/06/29 07:58:36;;;;;;;3.78;1.30;;;;;;;;;;4999319;28;20042;-82
2023/06/29 08:01:05;;;;;;;2.50;1.00;;;;;;;;;;4985592;28;20057;-72
2023/06/29 08:03:33;;;;;;;3.83;1.00;;;;;;;;;;5025185;28;20402;-81
2023/06/29 08:06:19;;;;;;;5.88;1.65;;;;;;;;;;5002605;28;20052;-81
2023/06/29 08:08:50;;;;;;;4.03;1.50;;;;;;;;;;5009574;28;20061;-74
2023/06/29 08:11:17;;;;;;;77.15;3.30;;;;;;;;;;5021987;28;20068;-74
2023/06/29 08:13:43;;;;;;;7.35;1.55;;;;;;;;;;4992218;28;20422;-73
2023/06/29 08:16:10;;;;;;;239.95;7.03;;;;;;;;;;5026138;28;20114;-72
2023/06/29 08:18:37;;;;;;;13.75;1.60;;;;;;;;;;5004861;28;20040;-72
2023/06/29 08:21:13;;;;;;;6.15;1.55;;;;;;;;;;5002993;28;20563;-73
2023/06/29 08:23:40;;;;;;;5.07;1.20;;;;;;;;;;5004367;28;20049;-74
2023/06/29 08:26:06;;;;;;;3.42;1.38;;;;;;;;;;5012710;28;20059;-83
2023/06/29 08:28:35;;;;;;;5.07;1.48;;;;;;;;;;5030272;28;20147;-82
2023/06/29 08:31:02;;;;;;;3.58;1.33;;;;;;;;;;4999896;28;20103;-82
2023/06/29 08:33:33;;;;;;;5.60;1.30;;;;;;;;;;5038754;28;20411;-83
2023/06/29 08:35:59;;;;;;;2.55;1.10;;;;;;;;;;5055948;28;24538;-84
2023/06/29 08:38:26;;;;;;;4.47;1.55;;;;;;;;;;5014628;28;20040;-84
2023/06/29 08:40:56;;;;;;;2.28;1.23;;;;;;;;;;5031673;28;20037;-83
2023/06/29 08:43:22;;;;;;;6.90;1.50;;;;;;;;;;5020329;28;20165;-82
2023/06/29 08:45:49;;;;;;;2.47;1.33;;;;;;;;;;5006490;28;20042;-84
2023/06/29 08:48:18;;;;;;;8.75;1.50;;;;;;;;;;5007226;28;20490;-83
2023/06/29 08:50:56;;;;;;;8.25;1.50;;;;;;;;;;5008392;28;20045;-82
2023/06/29 08:53:23;;;;;;;3.45;1.27;;;;;;;;;;5009300;28;20060;-82
2023/06/29 08:55:50;;;;;;;4.90;1.45;;;;;;;;;;5006170;28;20054;-83
2023/06/29 08:58:17;;;;;;;2.97;1.20;;;;;;;;;;5006922;28;20045;-82
2023/06/29 09:00:44;;;;;;;4.47;1.40;;;;;;;;;;4990910;28;20050;-87
2023/06/29 09:03:11;;;;;;;5.03;1.23;;;;;;;;;;5008464;28;20133;-82
2023/06/29 09:05:38;;;;;;;3.03;1.30;;;;;;;;;;5004964;28;20080;-82
2023/06/29 09:08:06;;;;;;;3.28;1.23;;;;;;;;;;5006480;28;20380;-81
2023/06/29 09:10:33;;;;;;;4.55;1.33;;;;;;;;;;5005944;28;20112;-82
2023/06/29 09:13:02;;;;;;;3.40;1.40;;;;;;;;;;5004826;28;20049;-81
2023/06/29 09:15:29;;;;;;;2.60;1.25;;;;;;;;;;5006625;28;20046;-81
2023/06/29 09:17:55;;;;;;;4.43;1.30;;;;;;;;;;5006320;28;20049;-80
2023/06/29 09:20:25;;;;;;;3.60;1.20;;;;;;;;;;5006987;28;20433;-82
2023/06/29 09:22:51;;;;;;;3.58;1.35;;;;;;;;;;5006873;28;20042;-82
2023/06/29 09:25:18;;;;;;;3.50;1.30;;;;;;;;;;5004807;28;20078;-82
2023/06/29 09:28:03;;;;;;;4.72;1.40;;;;;;;;;;5003871;28;20046;-81
2023/06/29 09:30:34;;;;;;;4.10;1.45;;;;;;;;;;5002794;28;20054;-81
2023/06/29 09:33:04;;;;;;;3.30;1.40;;;;;;;;;;5006155;28;20121;-83
2023/06/29 09:35:31;;;;;;;4.18;1.30;;;;;;;;;;5006202;28;20061;-85
2023/06/29 09:38:00;;;;;;;3.88;1.40;;;;;;;;;;5004718;28;20178;-82
2023/06/29 09:40:26;;;;;;;5.97;1.50;;;;;;;;;;5005043;28;20050;-81
2023/06/29 09:42:53;;;;;;;2.58;1.27;;;;;;;;;;4989533;28;20052;-82
2023/06/29 09:45:20;;;;;;;5.22;1.40;;;;;;;;;;5008478;28;20105;-83
2023/06/29 09:47:50;;;;;;;3.58;1.20;;;;;;;;;;5023818;28;20068;-81
2023/06/29 09:50:21;;;;;;;2.70;1.50;;;;;;;;;;5007816;28;20037;-83
2023/06/29 09:52:49;;;;;;;1.83;1.20;;;;;;;;;;5014205;28;20045;-78
2023/06/29 09:55:27;;;;;;;2.50;1.45;;;;;;;;;;5015487;28;20052;-78
2023/06/29 09:57:54;;;;;;;3.97;1.70;;;;;;;;;;5004168;28;20053;-78
2023/06/29 10:00:22;;;;;;;3.72;1.33;;;;;;;;;;5012520;28;20103;-75
2023/06/29 10:02:49;;;;;;;3.20;1.40;;;;;;;;;;5027501;28;20052;-80
2023/06/29 10:05:15;;;;;;;5.20;1.20;;;;;;;;;;5013690;28;20087;-83
2023/06/29 10:07:42;;;;;;;4.13;1.38;;;;;;;;;;5028814;28;20068;-82
2023/06/29 10:10:10;;;;;;;2.63;1.10;;;;;;;;;;5005437;28;20513;-79
2023/06/29 10:12:37;;;;;;;2.80;1.30;;;;;;;;;;5007253;28;20460;-84
2023/06/29 10:15:08;;;;;;;2.70;1.40;;;;;;;;;;5014950;28;20038;-82
2023/06/29 10:17:46;;;;;;;2.13;1.20;;;;;;;;;;5026227;28;20056;-81
2023/06/29 10:20:14;;;;;;;2.45;1.30;;;;;;;;;;5011307;28;20037;-81
2023/06/29 10:22:41;;;;;;;4.13;1.30;;;;;;;;;;5014351;28;20105;-81
2023/06/29 10:25:09;;;;;;;2.95;1.40;;;;;;;;;;5013678;28;20050;-82
2023/06/29 10:27:46;;;;;;;2.40;1.30;;;;;;;;;;5010344;28;20445;-79
2023/06/29 10:30:17;;;;;;;3.10;1.40;;;;;;;;;;4995418;28;20487;-83
2023/06/29 10:32:47;;;;;;;3.97;1.38;;;;;;;;;;5011254;28;20042;-82
2023/06/29 10:35:14;;;;;;;3.10;1.13;;;;;;;;;;5012317;28;20099;-83
2023/06/29 10:37:41;;;;;;;2.97;1.30;;;;;;;;;;4992938;28;20053;-83
2023/06/29 10:40:15;;;;;;;4.28;1.30;;;;;;;;;;5012974;28;20037;-80
2023/06/29 10:42:41;;;;;;;3.67;1.48;;;;;;;;;;4993020;28;20087;-82
2023/06/29 10:45:21;;;;;;;2.72;1.40;;;;;;;;;;5002100;28;20125;-84
2023/06/29 10:47:56;;;;;;;1.85;1.17;;;;;;;;;;4980802;28;20050;-82
2023/06/29 10:50:29;;;;;;;1.95;1.33;;;;;;;;;;4996718;28;20046;-83
2023/06/29 10:52:59;;;;;;;3.08;1.40;;;;;;;;;;4997296;28;20112;-83
2023/06/29 10:55:28;;;;;;;5.72;1.45;;;;;;;;;;4979410;28;20049;-81
2023/06/29 10:57:55;;;;;;;1.95;1.40;;;;;;;;;;5030314;28;20092;-84
2023/06/29 11:00:24;;;;;;;2.97;1.35;;;;;;;;;;4999396;28;20061;-81
2023/06/29 11:02:52;;;;;;;1.88;1.60;;;;;;;;;;5018530;28;20087;-81
2023/06/29 11:05:19;;;;;;;2.42;1.20;;;;;;;;;;5013844;28;20045;-81
2023/06/29 11:07:50;;;;;;;5.47;1.50;;;;;;;;;;5011746;28;20053;-82
2023/06/29 11:10:18;;;;;;;5.20;1.30;;;;;;;;;;4995986;28;20041;-81
2023/06/29 11:12:44;;;;;;;3.20;1.42;;;;;;;;;;5015019;28;20049;-83
2023/06/29 11:15:12;;;;;;;4.65;1.55;;;;;;;;;;4998724;28;20041;-83
2023/06/29 11:18:00;;;;;;;7.43;1.70;;;;;;;;;;5034109;28;20052;-86
2023/06/29 11:20:28;;;;;;;2.95;1.60;;;;;;;;;;5023456;28;20049;-82
2023/06/29 11:22:56;;;;;;;3.97;1.42;;;;;;;;;;5038577;28;20048;-84
2023/06/29 11:25:25;;;;;;;3.35;1.73;;;;;;;;;;5018523;28;20075;-83
2023/06/29 11:27:52;;;;;;;3.42;1.60;;;;;;;;;;5032059;28;20045;-83
2023/06/29 11:30:19;;;;;;;6.38;1.63;;;;;;;;;;4994626;28;20049;-81
2023/06/29 11:32:48;;;;;;;3.55;1.65;;;;;;;;;;4996753;28;20084;-83
2023/06/29 11:35:15;;;;;;;4.95;1.60;;;;;;;;;;5014433;28;20046;-81
2023/06/29 11:37:41;;;;;;;5.65;1.80;;;;;;;;;;4995880;28;20038;-81
2023/06/29 11:40:28;;;;;;;3.90;1.55;;;;;;;;;;5015797;28;20038;-85
2023/06/29 11:42:55;;;;;;;4.72;1.50;;;;;;;;;;4998877;28;20053;-81
2023/06/29 11:45:23;;;;;;;5.90;1.63;;;;;;;;;;5003839;28;20038;-82
2023/06/29 11:47:53;;;;;;;3.17;1.60;;;;;;;;;;4990896;28;20255;-83
2023/06/29 11:50:19;;;;;;;2.67;1.70;;;;;;;;;;5015432;28;20429;-82
2023/06/29 11:52:46;;;;;;;5.43;1.67;;;;;;;;;;4998744;28;20045;-84
2023/06/29 11:55:14;;;;;;;6.60;1.60;;;;;;;;;;5017743;28;20042;-85
2023/06/29 11:57:41;;;;;;;3.22;1.77;;;;;;;;;;5000121;28;20183;-82
2023/06/29 12:00:11;;;;;;;5.18;1.65;;;;;;;;;;5034772;28;20084;-82
2023/06/29 12:02:41;;;;;;;5.15;1.65;;;;;;;;;;5015911;28;20049;-83
2023/06/29 12:05:08;;;;;;;3.25;1.60;;;;;;;;;;5041002;28;20047;-84
2023/06/29 12:07:39;;;;;;;3.72;1.65;;;;;;;;;;5019691;28;20092;-85
2023/06/29 12:10:10;;;;;;;4.05;1.58;;;;;;;;;;5037711;28;20045;-80
2023/06/29 12:12:37;;;;;;;2.78;1.60;;;;;;;;;;5025701;28;20077;-86
2023/06/29 12:15:11;;;;;;;1.63;1.52;;;;;;;;;;5027273;28;20537;-84
2023/06/29 12:17:38;;;;;;;3.97;1.80;;;;;;;;;;5014442;28;20052;-87
2023/06/29 12:20:17;;;;;;;4.93;1.60;;;;;;;;;;5036790;28;20060;-84
2023/06/29 12:22:46;;;;;;;6.22;1.60;;;;;;;;;;5021041;28;20072;-84
2023/06/29 12:25:14;;;;;;;3.75;2.00;;;;;;;;;;5013584;28;20144;-83
2023/06/29 12:27:41;;;;;;;4.47;1.45;;;;;;;;;;5012124;28;20308;-81
2023/06/29 12:30:14;;;;;;;4.82;1.60;;;;;;;;;;5029084;28;20087;-84
2023/06/29 12:32:44;;;;;;;2.58;1.60;;;;;;;;;;5012164;28;20045;-83
2023/06/29 12:35:12;;;;;;;2.95;1.75;;;;;;;;;;4996972;28;20068;-81
2023/06/29 12:37:39;;;;;;;3.00;1.60;;;;;;;;;;5012415;28;20068;-82
2023/06/29 12:40:06;;;;;;;3.42;1.60;;;;;;;;;;5013765;28;20132;-81
2023/06/29 12:42:33;;;;;;;2.80;1.67;;;;;;;;;;5015888;28;20187;-82
2023/06/29 12:45:00;;;;;;;3.47;1.80;;;;;;;;;;4997938;28;20040;-84
2023/06/29 12:47:30;;;;;;;3.40;1.60;;;;;;;;;;4996341;28;20061;-82
2023/06/29 12:49:57;;;;;;;4.03;1.60;;;;;;;;;;5031431;28;20049;-82
2023/06/29 12:52:24;;;;;;;4.18;1.40;;;;;;;;;;4998770;28;20351;-84
2023/06/29 12:54:52;;;;;;;2.42;1.40;;;;;;;;;;5029386;28;20196;-86
2023/06/29 12:57:25;;;;;;;3.17;1.50;;;;;;;;;;4997349;28;20050;-85
2023/06/29 12:59:53;;;;;;;5.45;1.40;;;;;;;;;;4991285;28;20080;-83
2023/06/29 13:02:19;;;;;;;4.50;1.50;;;;;;;;;;5007091;28;20442;-82
2023/06/29 13:04:46;;;;;;;4.80;1.50;;;;;;;;;;5009715;28;20132;-82
2023/06/29 13:07:14;;;;;;;2.40;1.40;;;;;;;;;;5013414;28;20478;-85
2023/06/29 13:09:41;;;;;;;5.07;1.52;;;;;;;;;;5017036;28;20498;-84
2023/06/29 13:12:08;;;;;;;5.78;1.48;;;;;;;;;;5016158;28;20038;-84
2023/06/29 13:14:35;;;;;;;5.07;1.60;;;;;;;;;;5012807;28;20043;-84
2023/06/29 13:17:01;;;;;;;2.22;1.40;;;;;;;;;;5011531;28;20045;-85
2023/06/29 13:19:28;;;;;;;4.47;1.35;;;;;;;;;;5002598;28;20042;-82
2023/06/29 13:21:54;;;;;;;5.15;1.85;;;;;;;;;;5001167;28;20567;-84
2023/06/29 13:24:22;;;;;;;4.88;1.50;;;;;;;;;;5001115;28;20381;-87
2023/06/29 13:26:50;;;;;;;4.90;1.50;;;;;;;;;;5014733;28;20100;-82
2023/06/29 13:29:19;;;;;;;2.58;1.70;;;;;;;;;;5003663;28;20112;-82
2023/06/29 13:31:46;;;;;;;2.55;1.50;;;;;;;;;;5012215;28;20509;-86
2023/06/29 13:34:13;;;;;;;3.55;1.60;;;;;;;;;;5012035;28;20473;-83
2023/06/29 13:36:40;;;;;;;2.33;1.42;;;;;;;;;;5010279;28;20050;-85
2023/06/29 13:39:07;;;;;;;7.63;1.67;;;;;;;;;;5019760;28;20034;-84
2023/06/29 13:41:36;;;;;;;2.10;1.50;;;;;;;;;;5013981;28;20079;-83
2023/06/29 13:44:07;;;;;;;2.20;1.50;;;;;;;;;;5014818;28;20058;-83
2023/06/29 13:46:34;;;;;;;3.55;1.40;;;;;;;;;;5034170;28;20061;-82
2023/06/29 13:49:02;;;;;;;2.22;1.58;;;;;;;;;;5015254;28;20053;-82
2023/06/29 13:51:29;;;;;;;4.15;1.48;;;;;;;;;;5014046;28;20437;-86
2023/06/29 13:53:56;;;;;;;2.65;1.52;;;;;;;;;;5013455;28;20398;-81
2023/06/29 13:56:23;;;;;;;2.17;1.35;;;;;;;;;;5008521;28;20053;-83
2023/06/29 13:58:51;;;;;;;2.22;1.45;;;;;;;;;;4994839;28;20056;-83
2023/06/29 14:01:18;;;;;;;2.53;1.40;;;;;;;;;;4992220;28;20239;-82
2023/06/29 14:03:45;;;;;;;3.40;1.80;;;;;;;;;;4994912;28;20042;-82
2023/06/29 14:06:12;;;;;;;2.60;1.42;;;;;;;;;;5012389;28;20542;-82
2023/06/29 14:08:39;;;;;;;6.00;1.60;;;;;;;;;;4998169;28;20084;-86
2023/06/29 14:11:06;;;;;;;8.82;1.65;;;;;;;;;;4981120;28;20506;-81
2023/06/29 14:13:33;;;;;;;5.55;1.85;;;;;;;;;;4997371;28;20510;-84
2023/06/29 14:15:59;;;;;;;2.15;1.42;;;;;;;;;;4979995;28;20186;-85
2023/06/29 14:18:26;;;;;;;2.28;1.23;;;;;;;;;;4999736;28;20537;-82
2023/06/29 14:20:53;;;;;;;2.15;1.33;;;;;;;;;;5014575;28;20125;-84
2023/06/29 14:23:21;;;;;;;2.17;1.20;;;;;;;;;;4996378;28;20647;-84
2023/06/29 14:25:48;;;;;;;6.32;1.30;;;;;;;;;;4979335;28;20076;-83
2023/06/29 14:28:17;;;;;;;3.03;1.60;;;;;;;;;;5012818;28;20045;-85
2023/06/29 14:30:44;;;;;;;4.93;1.48;;;;;;;;;;4995971;28;20745;-84
2023/06/29 14:33:10;;;;;;;2.22;1.33;;;;;;;;;;4981824;28;20038;-83
2023/06/29 14:35:54;;;;;;;4.25;1.60;;;;;;;;;;5012520;28;20060;-82
2023/06/29 14:38:20;;;;;;;3.15;1.42;;;;;;;;;;5013144;28;20120;-81
2023/06/29 14:40:47;;;;;;;2.33;1.40;;;;;;;;;;5015794;28;20056;-82
2023/06/29 14:43:14;;;;;;;2.28;1.50;;;;;;;;;;4999051;28;20470;-82
2023/06/29 14:45:41;;;;;;;4.35;1.50;;;;;;;;;;5004785;28;20587;-85